sensor_id;sensor_type;location;lat;lon;timestamp;temperature;humidity
23719;DHT22;43322;52.230;5.702;2023-04-03T00:01:34;3.30;99.90
23719;DHT22;43322;52.230;5.702;2023-04-03T00:04:03;3.30;99.90
23719;DHT22;43322;52.230;5.702;2023-04-03T00:06:30;3.30;99.90
23719;DHT22;43322;52.230;5.702;2023-04-03T00:08:58;3.20;99.90
23719;DHT22;43322;52.230;5.702;2023-04-03T00:11:25;3.20;99.90
23719;DHT22;43322;52.230;5.702;2023-04-03T00:13:52;3.20;99.90
23719;DHT22;43322;52.230;5.702;2023-04-03T00:16:19;3.10;99.90
23719;DHT22;43322;52.230;5.702;2023-04-03T00:18:46;3.20;99.90
23719;DHT22;43322;52.230;5.702;2023-04-03T00:21:13;3.20;99.90
23719;DHT22;43322;52.230;5.702;2023-04-03T00:23:41;3.10;99.90
23719;DHT22;43322;52.230;5.702;2023-04-03T00:26:09;3.10;99.90
23719;DHT22;43322;52.230;5.702;2023-04-03T00:28:35;3.20;99.90
23719;DHT22;43322;52.230;5.702;2023-04-03T00:31:03;3.20;99.90
23719;DHT22;43322;52.230;5.702;2023-04-03T00:33:29;3.10;99.90
23719;DHT22;43322;52.230;5.702;2023-04-03T00:35:56;3.10;99.90
23719;DHT22;43322;52.230;5.702;2023-04-03T00:38:23;3.20;99.90
23719;DHT22;43322;52.230;5.702;2023-04-03T00:40:50;3.20;99.90
23719;DHT22;43322;52.230;5.702;2023-04-03T00:43:20;3.20;99.90
23719;DHT22;43322;52.230;5.702;2023-04-03T00:45:49;3.10;99.90
23719;DHT22;43322;52.230;5.702;2023-04-03T00:48:18;3.10;99.90
23719;DHT22;43322;52.230;5.702;2023-04-03T00:50:46;3.10;99.90
23719;DHT22;43322;52.230;5.702;2023-04-03T00:53:16;3.10;99.90
23719;DHT22;43322;52.230;5.702;2023-04-03T00:55:44;3.10;99.90
23719;DHT22;43322;52.230;5.702;2023-04-03T00:58:14;3.10;99.90
23719;DHT22;43322;52.230;5.702;2023-04-03T01:00:46;3.10;99.90
23719;DHT22;43322;52.230;5.702;2023-04-03T01:03:14;3.10;99.90
23719;DHT22;43322;52.230;5.702;2023-04-03T01:05:41;3.10;99.90
23719;DHT22;43322;52.230;5.702;2023-04-03T01:08:08;3.00;99.90
23719;DHT22;43322;52.230;5.702;2023-04-03T01:10:35;3.00;99.90
23719;DHT22;43322;52.230;5.702;2023-04-03T01:13:01;3.00;99.90
23719;DHT22;43322;52.230;5.702;2023-04-03T01:15:44;3.00;99.90
23719;DHT22;43322;52.230;5.702;2023-04-03T01:18:11;2.90;99.90
23719;DHT22;43322;52.230;5.702;2023-04-03T01:23:52;2.90;99.90
23719;DHT22;43322;52.230;5.702;2023-04-03T01:26:21;2.80;99.90
23719;DHT22;43322;52.230;5.702;2023-04-03T01:28:48;2.80;99.90
23719;DHT22;43322;52.230;5.702;2023-04-03T01:31:20;2.80;99.90
23719;DHT22;43322;52.230;5.702;2023-04-03T01:33:50;2.70;99.90
23719;DHT22;43322;52.230;5.702;2023-04-03T01:36:19;2.70;99.90
23719;DHT22;43322;52.230;5.702;2023-04-03T01:38:47;2.70;99.90
23719;DHT22;43322;52.230;5.702;2023-04-03T01:41:14;2.70;99.90
23719;DHT22;43322;52.230;5.702;2023-04-03T01:43:41;2.60;99.90
23719;DHT22;43322;52.230;5.702;2023-04-03T01:46:08;2.70;99.90
23719;DHT22;43322;52.230;5.702;2023-04-03T01:48:35;2.70;99.90
23719;DHT22;43322;52.230;5.702;2023-04-03T01:51:03;2.60;99.90
23719;DHT22;43322;52.230;5.702;2023-04-03T01:53:30;2.60;99.90
23719;DHT22;43322;52.230;5.702;2023-04-03T01:55:57;2.60;99.90
23719;DHT22;43322;52.230;5.702;2023-04-03T01:58:24;2.50;99.90
23719;DHT22;43322;52.230;5.702;2023-04-03T02:00:51;2.50;99.90
23719;DHT22;43322;52.230;5.702;2023-04-03T02:03:17;2.40;99.90
23719;DHT22;43322;52.230;5.702;2023-04-03T02:05:44;2.40;99.90
23719;DHT22;43322;52.230;5.702;2023-04-03T02:08:13;2.40;99.90
23719;DHT22;43322;52.230;5.702;2023-04-03T02:10:40;2.40;99.90
23719;DHT22;43322;52.230;5.702;2023-04-03T02:13:06;2.30;99.90
23719;DHT22;43322;52.230;5.702;2023-04-03T02:15:33;2.30;99.90
23719;DHT22;43322;52.230;5.702;2023-04-03T02:18:00;2.20;99.90
23719;DHT22;43322;52.230;5.702;2023-04-03T02:20:27;2.30;99.90
23719;DHT22;43322;52.230;5.702;2023-04-03T02:22:54;2.20;99.90
23719;DHT22;43322;52.230;5.702;2023-04-03T02:25:22;2.20;99.90
23719;DHT22;43322;52.230;5.702;2023-04-03T02:27:49;2.20;99.90
23719;DHT22;43322;52.230;5.702;2023-04-03T02:30:15;2.20;99.90
23719;DHT22;43322;52.230;5.702;2023-04-03T02:32:43;2.20;99.90
23719;DHT22;43322;52.230;5.702;2023-04-03T02:35:10;2.30;99.90
23719;DHT22;43322;52.230;5.702;2023-04-03T02:37:37;2.20;99.90
23719;DHT22;43322;52.230;5.702;2023-04-03T02:40:06;2.20;99.90
23719;DHT22;43322;52.230;5.702;2023-04-03T02:42:34;2.20;99.90
23719;DHT22;43322;52.230;5.702;2023-04-03T02:45:01;2.20;99.90
23719;DHT22;43322;52.230;5.702;2023-04-03T02:47:28;2.20;99.90
23719;DHT22;43322;52.230;5.702;2023-04-03T02:49:55;2.20;99.90
23719;DHT22;43322;52.230;5.702;2023-04-03T02:52:22;2.10;99.90
23719;DHT22;43322;52.230;5.702;2023-04-03T02:54:49;2.70;99.90
23719;DHT22;43322;52.230;5.702;2023-04-03T02:57:15;2.10;99.90
23719;DHT22;43322;52.230;5.702;2023-04-03T02:59:44;2.10;99.90
23719;DHT22;43322;52.230;5.702;2023-04-03T03:02:10;2.10;99.90
23719;DHT22;43322;52.230;5.702;2023-04-03T03:04:37;2.10;99.90
23719;DHT22;43322;52.230;5.702;2023-04-03T03:07:04;2.10;99.90
23719;DHT22;43322;52.230;5.702;2023-04-03T03:09:31;2.10;99.90
23719;DHT22;43322;52.230;5.702;2023-04-03T03:11:57;2.00;99.90
23719;DHT22;43322;52.230;5.702;2023-04-03T03:14:24;2.00;99.90
23719;DHT22;43322;52.230;5.702;2023-04-03T03:16:52;2.00;99.90
23719;DHT22;43322;52.230;5.702;2023-04-03T03:19:19;2.00;99.90
23719;DHT22;43322;52.230;5.702;2023-04-03T03:21:46;2.00;99.90
23719;DHT22;43322;52.230;5.702;2023-04-03T03:24:12;2.00;99.90
23719;DHT22;43322;52.230;5.702;2023-04-03T03:26:41;2.00;99.90
23719;DHT22;43322;52.230;5.702;2023-04-03T03:29:08;1.90;99.90
23719;DHT22;43322;52.230;5.702;2023-04-03T03:31:35;1.90;99.90
23719;DHT22;43322;52.230;5.702;2023-04-03T03:34:03;1.90;99.90
23719;DHT22;43322;52.230;5.702;2023-04-03T03:36:29;1.90;99.90
23719;DHT22;43322;52.230;5.702;2023-04-03T03:38:57;1.90;99.90
23719;DHT22;43322;52.230;5.702;2023-04-03T03:41:23;1.90;99.90
23719;DHT22;43322;52.230;5.702;2023-04-03T03:43:50;1.90;99.90
23719;DHT22;43322;52.230;5.702;2023-04-03T03:46:17;1.80;99.90
23719;DHT22;43322;52.230;5.702;2023-04-03T03:48:44;1.80;99.90
23719;DHT22;43322;52.230;5.702;2023-04-03T03:51:12;1.80;99.90
23719;DHT22;43322;52.230;5.702;2023-04-03T03:53:39;1.80;99.90
23719;DHT22;43322;52.230;5.702;2023-04-03T03:56:06;1.70;99.90
23719;DHT22;43322;52.230;5.702;2023-04-03T03:58:33;1.00;99.90
23719;DHT22;43322;52.230;5.702;2023-04-03T04:01:01;1.70;99.90
23719;DHT22;43322;52.230;5.702;2023-04-03T04:03:28;1.70;99.90
23719;DHT22;43322;52.230;5.702;2023-04-03T04:05:54;1.70;99.90
23719;DHT22;43322;52.230;5.702;2023-04-03T04:08:23;1.70;99.90
23719;DHT22;43322;52.230;5.702;2023-04-03T04:10:50;1.60;99.90
23719;DHT22;43322;52.230;5.702;2023-04-03T04:13:17;1.60;99.90
23719;DHT22;43322;52.230;5.702;2023-04-03T04:15:43;1.60;99.90
23719;DHT22;43322;52.230;5.702;2023-04-03T04:18:10;1.60;99.90
23719;DHT22;43322;52.230;5.702;2023-04-03T04:20:37;1.50;99.90
23719;DHT22;43322;52.230;5.702;2023-04-03T04:23:04;1.60;99.90
23719;DHT22;43322;52.230;5.702;2023-04-03T04:25:32;1.60;99.90
23719;DHT22;43322;52.230;5.702;2023-04-03T04:27:59;1.50;99.90
23719;DHT22;43322;52.230;5.702;2023-04-03T04:30:26;1.50;99.90
23719;DHT22;43322;52.230;5.702;2023-04-03T04:32:53;1.50;99.90
23719;DHT22;43322;52.230;5.702;2023-04-03T04:35:19;1.50;99.90
23719;DHT22;43322;52.230;5.702;2023-04-03T04:37:46;1.50;99.90
23719;DHT22;43322;52.230;5.702;2023-04-03T04:40:13;1.50;99.90
23719;DHT22;43322;52.230;5.702;2023-04-03T04:42:41;1.50;99.90
23719;DHT22;43322;52.230;5.702;2023-04-03T04:45:09;1.40;99.90
23719;DHT22;43322;52.230;5.702;2023-04-03T04:47:36;1.40;99.90
23719;DHT22;43322;52.230;5.702;2023-04-03T04:50:03;1.40;99.90
23719;DHT22;43322;52.230;5.702;2023-04-03T04:52:29;1.40;99.90
23719;DHT22;43322;52.230;5.702;2023-04-03T04:54:56;1.40;99.90
23719;DHT22;43322;52.230;5.702;2023-04-03T04:57:23;1.40;99.90
23719;DHT22;43322;52.230;5.702;2023-04-03T04:59:51;1.20;99.90
23719;DHT22;43322;52.230;5.702;2023-04-03T05:02:18;1.20;99.90
23719;DHT22;43322;52.230;5.702;2023-04-03T05:04:45;1.20;99.90
23719;DHT22;43322;52.230;5.702;2023-04-03T05:07:12;1.20;99.90
23719;DHT22;43322;52.230;5.702;2023-04-03T05:09:38;1.20;99.90
23719;DHT22;43322;52.230;5.702;2023-04-03T05:12:07;1.10;99.90
23719;DHT22;43322;52.230;5.702;2023-04-03T05:14:34;1.00;99.90
23719;DHT22;43322;52.230;5.702;2023-04-03T05:17:02;1.00;99.90
23719;DHT22;43322;52.230;5.702;2023-04-03T05:19:29;1.00;99.90
23719;DHT22;43322;52.230;5.702;2023-04-03T05:21:56;1.00;99.90
23719;DHT22;43322;52.230;5.702;2023-04-03T05:24:22;1.00;99.90
23719;DHT22;43322;52.230;5.702;2023-04-03T05:26:50;1.00;99.90
23719;DHT22;43322;52.230;5.702;2023-04-03T05:29:16;1.00;99.90
23719;DHT22;43322;52.230;5.702;2023-04-03T05:31:43;1.10;99.90
23719;DHT22;43322;52.230;5.702;2023-04-03T05:34:11;1.10;99.90
23719;DHT22;43322;52.230;5.702;2023-04-03T05:36:38;1.20;99.90
23719;DHT22;43322;52.230;5.702;2023-04-03T05:39:05;1.20;99.90
23719;DHT22;43322;52.230;5.702;2023-04-03T05:41:32;1.20;99.90
23719;DHT22;43322;52.230;5.702;2023-04-03T05:43:58;1.30;99.90
23719;DHT22;43322;52.230;5.702;2023-04-03T05:46:25;1.30;99.90
23719;DHT22;43322;52.230;5.702;2023-04-03T05:48:52;1.40;99.90
23719;DHT22;43322;52.230;5.702;2023-04-03T05:51:23;1.40;99.90
23719;DHT22;43322;52.230;5.702;2023-04-03T05:53:54;1.50;99.90
23719;DHT22;43322;52.230;5.702;2023-04-03T05:56:22;1.50;99.90
23719;DHT22;43322;52.230;5.702;2023-04-03T05:58:49;1.50;99.90
23719;DHT22;43322;52.230;5.702;2023-04-03T06:01:15;1.60;99.90
23719;DHT22;43322;52.230;5.702;2023-04-03T06:03:42;1.60;99.90
23719;DHT22;43322;52.230;5.702;2023-04-03T06:06:12;1.70;99.90
23719;DHT22;43322;52.230;5.702;2023-04-03T06:08:40;1.70;99.90
23719;DHT22;43322;52.230;5.702;2023-04-03T06:11:09;1.80;99.90
23719;DHT22;43322;52.230;5.702;2023-04-03T06:13:36;1.80;99.90
23719;DHT22;43322;52.230;5.702;2023-04-03T06:16:05;1.90;99.90
23719;DHT22;43322;52.230;5.702;2023-04-03T06:18:32;1.90;99.90
23719;DHT22;43322;52.230;5.702;2023-04-03T06:20:58;2.00;99.90
23719;DHT22;43322;52.230;5.702;2023-04-03T06:23:26;2.00;99.90
23719;DHT22;43322;52.230;5.702;2023-04-03T06:25:54;2.10;99.90
23719;DHT22;43322;52.230;5.702;2023-04-03T06:28:21;2.10;99.90
23719;DHT22;43322;52.230;5.702;2023-04-03T06:30:47;2.10;99.90
23719;DHT22;43322;52.230;5.702;2023-04-03T06:33:14;2.20;99.90
23719;DHT22;43322;52.230;5.702;2023-04-03T06:35:41;2.30;99.90
23719;DHT22;43322;52.230;5.702;2023-04-03T06:38:08;2.30;99.90
23719;DHT22;43322;52.230;5.702;2023-04-03T06:40:36;2.30;99.90
23719;DHT22;43322;52.230;5.702;2023-04-03T06:43:05;2.30;99.90
23719;DHT22;43322;52.230;5.702;2023-04-03T06:45:32;2.30;99.90
23719;DHT22;43322;52.230;5.702;2023-04-03T06:47:59;2.50;99.90
23719;DHT22;43322;52.230;5.702;2023-04-03T06:50:26;2.60;99.90
23719;DHT22;43322;52.230;5.702;2023-04-03T06:52:53;2.70;99.90
23719;DHT22;43322;52.230;5.702;2023-04-03T06:55:20;2.70;99.90
23719;DHT22;43322;52.230;5.702;2023-04-03T06:57:47;2.90;99.90
23719;DHT22;43322;52.230;5.702;2023-04-03T07:00:16;3.40;99.90
23719;DHT22;43322;52.230;5.702;2023-04-03T07:02:43;3.90;99.90
23719;DHT22;43322;52.230;5.702;2023-04-03T07:05:09;4.60;99.90
23719;DHT22;43322;52.230;5.702;2023-04-03T07:07:37;5.30;99.90
23719;DHT22;43322;52.230;5.702;2023-04-03T07:10:04;5.80;99.90
23719;DHT22;43322;52.230;5.702;2023-04-03T07:12:31;5.80;99.90
23719;DHT22;43322;52.230;5.702;2023-04-03T07:14:58;5.20;99.90
23719;DHT22;43322;52.230;5.702;2023-04-03T07:17:26;5.20;99.90
23719;DHT22;43322;52.230;5.702;2023-04-03T07:19:53;5.60;99.90
23719;DHT22;43322;52.230;5.702;2023-04-03T07:22:20;5.90;99.90
23719;DHT22;43322;52.230;5.702;2023-04-03T07:24:47;5.70;99.90
23719;DHT22;43322;52.230;5.702;2023-04-03T07:27:13;5.10;99.90
23719;DHT22;43322;52.230;5.702;2023-04-03T07:29:40;4.90;99.90
23719;DHT22;43322;52.230;5.702;2023-04-03T07:32:08;4.80;99.90
23719;DHT22;43322;52.230;5.702;2023-04-03T07:34:36;5.10;99.90
23719;DHT22;43322;52.230;5.702;2023-04-03T07:37:03;5.50;99.90
23719;DHT22;43322;52.230;5.702;2023-04-03T07:39:30;5.80;99.90
23719;DHT22;43322;52.230;5.702;2023-04-03T07:41:57;5.80;99.90
23719;DHT22;43322;52.230;5.702;2023-04-03T07:44:24;5.90;99.90
23719;DHT22;43322;52.230;5.702;2023-04-03T07:46:51;5.90;99.90
23719;DHT22;43322;52.230;5.702;2023-04-03T07:49:18;6.00;99.90
23719;DHT22;43322;52.230;5.702;2023-04-03T07:51:46;6.20;99.90
23719;DHT22;43322;52.230;5.702;2023-04-03T07:54:14;6.60;99.90
23719;DHT22;43322;52.230;5.702;2023-04-03T07:56:41;6.80;99.90
23719;DHT22;43322;52.230;5.702;2023-04-03T07:59:08;6.90;99.90
23719;DHT22;43322;52.230;5.702;2023-04-03T08:01:36;7.30;99.90
23719;DHT22;43322;52.230;5.702;2023-04-03T08:04:02;7.30;99.90
23719;DHT22;43322;52.230;5.702;2023-04-03T08:06:31;7.40;99.90
23719;DHT22;43322;52.230;5.702;2023-04-03T08:09:00;7.60;99.90
23719;DHT22;43322;52.230;5.702;2023-04-03T08:11:27;7.50;99.90
23719;DHT22;43322;52.230;5.702;2023-04-03T08:13:54;7.60;99.90
23719;DHT22;43322;52.230;5.702;2023-04-03T08:16:23;7.40;99.90
23719;DHT22;43322;52.230;5.702;2023-04-03T08:18:51;7.40;99.90
23719;DHT22;43322;52.230;5.702;2023-04-03T08:21:17;7.60;99.90
23719;DHT22;43322;52.230;5.702;2023-04-03T08:23:44;7.70;99.90
23719;DHT22;43322;52.230;5.702;2023-04-03T08:26:14;7.70;99.90
23719;DHT22;43322;52.230;5.702;2023-04-03T08:28:41;7.60;99.90
23719;DHT22;43322;52.230;5.702;2023-04-03T08:31:10;7.20;99.90
23719;DHT22;43322;52.230;5.702;2023-04-03T08:33:39;7.50;99.90
23719;DHT22;43322;52.230;5.702;2023-04-03T08:36:14;7.80;99.90
23719;DHT22;43322;52.230;5.702;2023-04-03T08:38:42;8.30;99.90
23719;DHT22;43322;52.230;5.702;2023-04-03T08:41:15;8.40;99.90
23719;DHT22;43322;52.230;5.702;2023-04-03T08:43:55;8.10;99.90
23719;DHT22;43322;52.230;5.702;2023-04-03T08:46:31;7.90;99.90
23719;DHT22;43322;52.230;5.702;2023-04-03T08:49:02;7.90;99.90
23719;DHT22;43322;52.230;5.702;2023-04-03T08:51:29;8.20;99.90
23719;DHT22;43322;52.230;5.702;2023-04-03T08:54:00;8.30;99.90
23719;DHT22;43322;52.230;5.702;2023-04-03T08:56:30;8.30;99.90
23719;DHT22;43322;52.230;5.702;2023-04-03T08:59:00;8.60;99.90
23719;DHT22;43322;52.230;5.702;2023-04-03T09:01:33;8.60;99.90
23719;DHT22;43322;52.230;5.702;2023-04-03T09:04:01;8.40;99.90
23719;DHT22;43322;52.230;5.702;2023-04-03T09:06:31;8.00;99.90
23719;DHT22;43322;52.230;5.702;2023-04-03T09:09:07;8.00;99.90
23719;DHT22;43322;52.230;5.702;2023-04-03T09:11:47;8.20;99.90
23719;DHT22;43322;52.230;5.702;2023-04-03T09:14:22;8.50;99.90
23719;DHT22;43322;52.230;5.702;2023-04-03T09:16:54;8.90;99.90
23719;DHT22;43322;52.230;5.702;2023-04-03T09:19:30;9.30;99.90
23719;DHT22;43322;52.230;5.702;2023-04-03T09:22:13;9.40;99.90
23719;DHT22;43322;52.230;5.702;2023-04-03T09:24:43;9.80;99.90
23719;DHT22;43322;52.230;5.702;2023-04-03T09:27:13;9.30;99.90
23719;DHT22;43322;52.230;5.702;2023-04-03T09:29:42;9.20;99.90
23719;DHT22;43322;52.230;5.702;2023-04-03T09:32:26;9.20;99.90
23719;DHT22;43322;52.230;5.702;2023-04-03T09:34:54;9.30;99.90
23719;DHT22;43322;52.230;5.702;2023-04-03T09:37:37;9.60;99.90
23719;DHT22;43322;52.230;5.702;2023-04-03T09:40:05;9.70;99.90
23719;DHT22;43322;52.230;5.702;2023-04-03T09:42:46;9.30;99.90
23719;DHT22;43322;52.230;5.702;2023-04-03T09:45:24;9.30;99.90
23719;DHT22;43322;52.230;5.702;2023-04-03T09:48:05;9.00;99.00
23719;DHT22;43322;52.230;5.702;2023-04-03T09:50:33;8.90;99.90
23719;DHT22;43322;52.230;5.702;2023-04-03T09:53:05;8.80;99.90
23719;DHT22;43322;52.230;5.702;2023-04-03T09:55:33;9.10;99.90
23719;DHT22;43322;52.230;5.702;2023-04-03T09:58:24;9.20;96.40
23719;DHT22;43322;52.230;5.702;2023-04-03T10:00:55;9.20;97.00
23719;DHT22;43322;52.230;5.702;2023-04-03T10:03:25;9.40;95.90
23719;DHT22;43322;52.230;5.702;2023-04-03T10:05:53;9.50;92.50
23719;DHT22;43322;52.230;5.702;2023-04-03T10:08:22;9.70;93.50
23719;DHT22;43322;52.230;5.702;2023-04-03T10:11:15;9.90;96.30
23719;DHT22;43322;52.230;5.702;2023-04-03T10:13:55;10.30;96.40
23719;DHT22;43322;52.230;5.702;2023-04-03T10:16:27;10.50;94.70
23719;DHT22;43322;52.230;5.702;2023-04-03T10:19:05;10.60;93.70
23719;DHT22;43322;52.230;5.702;2023-04-03T10:21:44;10.90;91.10
23719;DHT22;43322;52.230;5.702;2023-04-03T10:24:17;10.70;90.80
23719;DHT22;43322;52.230;5.702;2023-04-03T10:26:54;10.40;87.80
23719;DHT22;43322;52.230;5.702;2023-04-03T10:29:40;10.10;91.30
23719;DHT22;43322;52.230;5.702;2023-04-03T10:32:31;9.90;92.00
23719;DHT22;43322;52.230;5.702;2023-04-03T10:35:10;10.10;90.10
23719;DHT22;43322;52.230;5.702;2023-04-03T10:37:49;10.80;91.40
23719;DHT22;43322;52.230;5.702;2023-04-03T10:40:24;11.10;92.50
23719;DHT22;43322;52.230;5.702;2023-04-03T10:43:02;11.30;81.10
23719;DHT22;43322;52.230;5.702;2023-04-03T10:45:53;11.60;82.60
23719;DHT22;43322;52.230;5.702;2023-04-03T10:48:33;11.60;88.00
23719;DHT22;43322;52.230;5.702;2023-04-03T10:51:16;11.60;79.60
23719;DHT22;43322;52.230;5.702;2023-04-03T10:53:52;12.30;90.50
23719;DHT22;43322;52.230;5.702;2023-04-03T10:56:29;12.40;71.70
23719;DHT22;43322;52.230;5.702;2023-04-03T10:59:12;13.00;78.10
23719;DHT22;43322;52.230;5.702;2023-04-03T11:01:44;13.50;80.20
23719;DHT22;43322;52.230;5.702;2023-04-03T11:04:13;13.90;81.40
23719;DHT22;43322;52.230;5.702;2023-04-03T11:06:44;14.10;79.90
23719;DHT22;43322;52.230;5.702;2023-04-03T11:09:21;13.70;77.50
23719;DHT22;43322;52.230;5.702;2023-04-03T11:11:51;13.90;74.40
23719;DHT22;43322;52.230;5.702;2023-04-03T11:14:26;14.20;74.00
23719;DHT22;43322;52.230;5.702;2023-04-03T11:17:15;14.80;72.10
23719;DHT22;43322;52.230;5.702;2023-04-03T11:19:50;14.70;75.30
23719;DHT22;43322;52.230;5.702;2023-04-03T11:22:23;15.10;82.40
23719;DHT22;43322;52.230;5.702;2023-04-03T11:24:57;14.80;70.90
23719;DHT22;43322;52.230;5.702;2023-04-03T11:27:25;15.00;76.30
23719;DHT22;43322;52.230;5.702;2023-04-03T11:29:56;15.10;74.50
23719;DHT22;43322;52.230;5.702;2023-04-03T11:33:00;15.60;79.80
23719;DHT22;43322;52.230;5.702;2023-04-03T11:35:30;15.60;72.30
23719;DHT22;43322;52.230;5.702;2023-04-03T11:38:00;14.90;70.80
23719;DHT22;43322;52.230;5.702;2023-04-03T11:40:29;15.10;77.00
23719;DHT22;43322;52.230;5.702;2023-04-03T11:43:06;15.10;71.40
23719;DHT22;43322;52.230;5.702;2023-04-03T11:45:37;15.30;69.70
23719;DHT22;43322;52.230;5.702;2023-04-03T11:54:44;15.80;70.80
23719;DHT22;43322;52.230;5.702;2023-04-03T11:57:44;15.80;70.50
23719;DHT22;43322;52.230;5.702;2023-04-03T12:07:08;14.20;68.30
23719;DHT22;43322;52.230;5.702;2023-04-03T12:10:15;14.10;68.40
23719;DHT22;43322;52.230;5.702;2023-04-03T12:12:43;15.10;69.50
23719;DHT22;43322;52.230;5.702;2023-04-03T12:15:26;15.70;78.60
23719;DHT22;43322;52.230;5.702;2023-04-03T12:17:53;15.90;72.30
23719;DHT22;43322;52.230;5.702;2023-04-03T12:23:31;15.40;62.60
23719;DHT22;43322;52.230;5.702;2023-04-03T12:26:08;15.20;62.60
23719;DHT22;43322;52.230;5.702;2023-04-03T12:28:45;15.30;74.40
23719;DHT22;43322;52.230;5.702;2023-04-03T12:31:14;16.20;72.60
23719;DHT22;43322;52.230;5.702;2023-04-03T12:33:57;16.40;67.30
23719;DHT22;43322;52.230;5.702;2023-04-03T12:36:31;16.20;62.70
23719;DHT22;43322;52.230;5.702;2023-04-03T12:39:42;15.80;59.70
23719;DHT22;43322;52.230;5.702;2023-04-03T12:42:38;15.80;64.80
23719;DHT22;43322;52.230;5.702;2023-04-03T12:45:16;15.50;66.60
23719;DHT22;43322;52.230;5.702;2023-04-03T12:47:48;15.30;60.40
23719;DHT22;43322;52.230;5.702;2023-04-03T12:50:23;14.90;68.80
23719;DHT22;43322;52.230;5.702;2023-04-03T12:52:54;14.90;72.80
23719;DHT22;43322;52.230;5.702;2023-04-03T12:55:24;15.10;64.80
23719;DHT22;43322;52.230;5.702;2023-04-03T12:57:52;15.20;68.20
23719;DHT22;43322;52.230;5.702;2023-04-03T13:00:21;15.20;66.10
23719;DHT22;43322;52.230;5.702;2023-04-03T13:02:49;15.20;69.30
23719;DHT22;43322;52.230;5.702;2023-04-03T13:05:18;15.40;63.30
23719;DHT22;43322;52.230;5.702;2023-04-03T13:07:49;15.50;65.20
23719;DHT22;43322;52.230;5.702;2023-04-03T13:10:17;15.10;65.80
23719;DHT22;43322;52.230;5.702;2023-04-03T13:12:51;14.90;63.30
23719;DHT22;43322;52.230;5.702;2023-04-03T13:15:20;15.10;72.00
23719;DHT22;43322;52.230;5.702;2023-04-03T13:17:48;15.50;70.40
23719;DHT22;43322;52.230;5.702;2023-04-03T13:20:21;15.40;70.70
23719;DHT22;43322;52.230;5.702;2023-04-03T13:22:54;15.20;76.40
23719;DHT22;43322;52.230;5.702;2023-04-03T13:25:23;15.90;81.20
23719;DHT22;43322;52.230;5.702;2023-04-03T13:27:52;15.70;69.00
23719;DHT22;43322;52.230;5.702;2023-04-03T13:30:23;15.60;67.30
23719;DHT22;43322;52.230;5.702;2023-04-03T13:32:51;15.50;70.30
23719;DHT22;43322;52.230;5.702;2023-04-03T13:35:39;15.20;70.90
23719;DHT22;43322;52.230;5.702;2023-04-03T13:38:23;14.80;71.10
23719;DHT22;43322;52.230;5.702;2023-04-03T13:40:51;14.40;78.10
23719;DHT22;43322;52.230;5.702;2023-04-03T13:43:22;14.70;72.60
23719;DHT22;43322;52.230;5.702;2023-04-03T13:45:59;14.80;72.50
23719;DHT22;43322;52.230;5.702;2023-04-03T13:48:27;14.50;74.80
23719;DHT22;43322;52.230;5.702;2023-04-03T13:50:57;14.20;72.10
23719;DHT22;43322;52.230;5.702;2023-04-03T13:53:25;14.90;74.40
23719;DHT22;43322;52.230;5.702;2023-04-03T13:55:56;13.90;70.10
23719;DHT22;43322;52.230;5.702;2023-04-03T13:58:25;13.90;70.50
23719;DHT22;43322;52.230;5.702;2023-04-03T14:00:54;13.30;72.00
23719;DHT22;43322;52.230;5.702;2023-04-03T14:03:25;13.30;76.80
23719;DHT22;43322;52.230;5.702;2023-04-03T14:05:52;13.50;76.10
23719;DHT22;43322;52.230;5.702;2023-04-03T14:08:20;13.60;76.00
23719;DHT22;43322;52.230;5.702;2023-04-03T14:10:47;13.30;69.50
23719;DHT22;43322;52.230;5.702;2023-04-03T14:13:17;13.40;76.60
23719;DHT22;43322;52.230;5.702;2023-04-03T14:15:47;12.90;73.30
23719;DHT22;43322;52.230;5.702;2023-04-03T14:18:18;12.90;77.20
23719;DHT22;43322;52.230;5.702;2023-04-03T14:20:45;12.80;83.40
23719;DHT22;43322;52.230;5.702;2023-04-03T14:23:12;12.80;78.60
23719;DHT22;43322;52.230;5.702;2023-04-03T14:25:40;12.60;78.70
23719;DHT22;43322;52.230;5.702;2023-04-03T14:28:15;12.60;79.20
23719;DHT22;43322;52.230;5.702;2023-04-03T14:30:42;12.50;72.30
23719;DHT22;43322;52.230;5.702;2023-04-03T14:33:13;12.50;74.40
23719;DHT22;43322;52.230;5.702;2023-04-03T14:35:41;12.60;85.40
23719;DHT22;43322;52.230;5.702;2023-04-03T14:38:20;12.30;78.70
23719;DHT22;43322;52.230;5.702;2023-04-03T14:40:47;12.40;79.50
23719;DHT22;43322;52.230;5.702;2023-04-03T14:43:13;12.20;78.80
23719;DHT22;43322;52.230;5.702;2023-04-03T14:45:40;12.20;81.50
23719;DHT22;43322;52.230;5.702;2023-04-03T14:48:12;11.90;75.00
23719;DHT22;43322;52.230;5.702;2023-04-03T14:50:42;12.10;88.10
23719;DHT22;43322;52.230;5.702;2023-04-03T14:53:10;12.00;89.60
23719;DHT22;43322;52.230;5.702;2023-04-03T14:55:40;12.10;81.40
23719;DHT22;43322;52.230;5.702;2023-04-03T14:58:09;11.70;86.00
23719;DHT22;43322;52.230;5.702;2023-04-03T15:00:38;11.80;81.40
23719;DHT22;43322;52.230;5.702;2023-04-03T15:03:05;11.70;80.30
23719;DHT22;43322;52.230;5.702;2023-04-03T15:05:35;11.40;80.80
23719;DHT22;43322;52.230;5.702;2023-04-03T15:08:02;11.80;84.90
23719;DHT22;43322;52.230;5.702;2023-04-03T15:10:30;12.00;88.70
23719;DHT22;43322;52.230;5.702;2023-04-03T15:12:58;11.80;83.80
23719;DHT22;43322;52.230;5.702;2023-04-03T15:15:28;11.50;81.60
23719;DHT22;43322;52.230;5.702;2023-04-03T15:17:56;11.80;87.80
23719;DHT22;43322;52.230;5.702;2023-04-03T15:20:25;11.40;85.40
23719;DHT22;43322;52.230;5.702;2023-04-03T15:22:54;11.50;82.00
23719;DHT22;43322;52.230;5.702;2023-04-03T15:25:22;11.80;90.10
23719;DHT22;43322;52.230;5.702;2023-04-03T15:27:49;12.00;82.50
23719;DHT22;43322;52.230;5.702;2023-04-03T15:30:17;12.10;81.20
23719;DHT22;43322;52.230;5.702;2023-04-03T15:32:45;12.10;81.60
23719;DHT22;43322;52.230;5.702;2023-04-03T15:35:11;12.20;77.80
23719;DHT22;43322;52.230;5.702;2023-04-03T15:37:38;12.00;82.60
23719;DHT22;43322;52.230;5.702;2023-04-03T15:40:08;12.20;79.90
23719;DHT22;43322;52.230;5.702;2023-04-03T15:42:35;12.00;84.20
23719;DHT22;43322;52.230;5.702;2023-04-03T15:45:02;12.00;82.10
23719;DHT22;43322;52.230;5.702;2023-04-03T15:47:29;11.70;82.80
23719;DHT22;43322;52.230;5.702;2023-04-03T15:49:56;11.50;79.30
23719;DHT22;43322;52.230;5.702;2023-04-03T15:52:23;11.50;78.60
23719;DHT22;43322;52.230;5.702;2023-04-03T15:54:50;11.50;84.30
23719;DHT22;43322;52.230;5.702;2023-04-03T15:57:18;11.60;87.30
23719;DHT22;43322;52.230;5.702;2023-04-03T15:59:45;12.00;89.60
23719;DHT22;43322;52.230;5.702;2023-04-03T16:02:12;12.00;82.60
23719;DHT22;43322;52.230;5.702;2023-04-03T16:04:39;12.00;81.40
23719;DHT22;43322;52.230;5.702;2023-04-03T16:07:06;11.80;83.20
23719;DHT22;43322;52.230;5.702;2023-04-03T16:09:34;11.70;80.80
23719;DHT22;43322;52.230;5.702;2023-04-03T16:12:01;11.80;80.40
23719;DHT22;43322;52.230;5.702;2023-04-03T16:14:30;12.10;81.70
23719;DHT22;43322;52.230;5.702;2023-04-03T16:16:58;12.00;80.10